Terminal Aerodrome Forecast
Issued by NWS

Home | Current Version | Previous Version | Graphics & Text | Print | Product List | Glossary On
Versions: 1 2 3 4 5 6 7 8 9 10 11 12 13
432
FTUS43 KTOP 222324
TAFFOE
TAF
KFOE 222324Z 2300/2324 16012KT P6SM SCT200
     FM230600 16010KT P6SM FEW015 BKN150 WS012/20040KT
     FM231200 16011G20KT 6SM BR BKN011
     FM231600 17013G23KT P6SM BKN025
     FM231800 18013G22KT P6SM SCT035=

USA.gov is the U.S. government's official web portal to all federal, state and local government web resources and services.